createdAt,value
2018-09-29T00:01:00.096Z,2.53
2018-09-29T00:06:03.605Z,3.00
2018-09-29T00:11:07.129Z,2.55
2018-09-29T00:16:10.855Z,3.23
2018-09-29T00:21:14.433Z,2.13
2018-09-29T00:26:17.905Z,1.75
2018-09-29T00:31:21.488Z,1.77
2018-09-29T00:36:25.167Z,1.70
2018-09-29T00:41:29.311Z,1.40
2018-09-29T00:46:33.620Z,1.80
2018-09-29T00:51:37.486Z,1.80
2018-09-29T00:56:41.429Z,2.42
2018-09-29T01:01:45.213Z,1.80
2018-09-29T01:06:49.048Z,1.40
2018-09-29T01:11:53.628Z,1.20
2018-09-29T01:16:57.116Z,1.27
2018-09-29T01:22:00.628Z,1.43
2018-09-29T01:27:04.559Z,1.40
2018-09-29T01:32:08.691Z,1.57
2018-09-29T01:37:12.655Z,1.43
2018-09-29T01:42:16.644Z,1.60
2018-09-29T01:47:20.487Z,1.70
2018-09-29T01:52:24.008Z,1.20
2018-09-29T01:57:27.483Z,1.30
2018-09-29T02:02:31.288Z,1.30
2018-09-29T02:07:34.998Z,1.67
2018-09-29T02:12:38.921Z,1.67
2018-09-29T02:17:43.042Z,1.65
2018-09-29T02:22:46.743Z,1.93
2018-09-29T02:27:50.667Z,1.50
2018-09-29T02:32:54.609Z,1.50
2018-09-29T02:37:58.325Z,1.50
2018-09-29T02:43:02.381Z,1.20
2018-09-29T02:48:06.099Z,1.83
2018-09-29T02:53:09.575Z,1.47
2018-09-29T02:58:13.037Z,1.20
2018-09-29T03:03:16.642Z,1.60
2018-09-29T03:08:20.577Z,1.37
2018-09-29T03:13:24.286Z,1.20
2018-09-29T03:18:28.111Z,1.50
2018-09-29T03:23:32.023Z,2.43
2018-09-29T03:28:35.952Z,1.40
2018-09-29T03:33:39.804Z,1.10
2018-09-29T03:38:43.345Z,1.00
2018-09-29T03:43:46.892Z,1.50
2018-09-29T03:48:50.645Z,1.10
2018-09-29T03:53:54.355Z,1.53
2018-09-29T03:58:57.839Z,1.40
2018-09-29T04:04:01.326Z,1.30
2018-09-29T04:09:07.624Z,1.27
2018-09-29T04:14:11.570Z,1.17
2018-09-29T04:19:15.162Z,1.10
2018-09-29T04:24:19.267Z,1.70
2018-09-29T04:29:22.762Z,1.30
2018-09-29T04:34:26.287Z,0.90
2018-09-29T04:39:29.773Z,1.10
2018-09-29T04:44:33.240Z,1.40
2018-09-29T04:49:37.176Z,1.40
2018-09-29T04:54:41.917Z,1.33
2018-09-29T04:59:45.452Z,0.93
2018-09-29T05:04:48.920Z,1.37
2018-09-29T05:09:52.475Z,1.20
2018-09-29T05:14:56.066Z,1.30
2018-09-29T05:19:59.501Z,1.47
2018-09-29T05:25:03.052Z,1.10
2018-09-29T05:30:08.408Z,0.77
2018-09-29T05:35:12.336Z,1.07
2018-09-29T05:40:16.450Z,1.10
2018-09-29T05:45:20.511Z,1.35
2018-09-29T05:50:24.068Z,1.20
2018-09-29T05:55:27.656Z,1.30
2018-09-29T06:00:31.280Z,1.30
2018-09-29T06:05:34.881Z,1.10
2018-09-29T06:10:39.877Z,1.13
2018-09-29T06:15:44.060Z,1.50
2018-09-29T06:20:48.139Z,1.00
2018-09-29T06:25:52.007Z,1.60
2018-09-29T06:30:55.582Z,1.33
2018-09-29T06:35:59.217Z,1.40
2018-09-29T06:41:02.975Z,1.30
2018-09-29T06:46:07.656Z,1.45
2018-09-29T06:51:11.544Z,1.50
2018-09-29T06:56:16.461Z,1.30
2018-09-29T07:01:20.214Z,1.30
2018-09-29T07:06:24.034Z,1.35
2018-09-29T07:11:27.534Z,1.30
2018-09-29T07:16:31.180Z,1.25
2018-09-29T07:21:35.264Z,1.25
2018-09-29T07:26:39.209Z,1.65
2018-09-29T07:31:44.081Z,1.13
2018-09-29T07:36:47.910Z,1.30
2018-09-29T07:41:51.822Z,1.22
2018-09-29T07:46:55.390Z,1.65
2018-09-29T07:51:59.080Z,1.10
2018-09-29T07:57:02.785Z,1.37
2018-09-29T08:02:06.714Z,1.00
2018-09-29T08:07:10.688Z,0.90
2018-09-29T08:12:14.931Z,1.30
2018-09-29T08:17:18.764Z,1.00
2018-09-29T08:22:23.084Z,1.07
2018-09-29T08:27:26.696Z,1.27
2018-09-29T08:32:30.209Z,1.30
2018-09-29T08:37:33.664Z,1.57
2018-09-29T08:42:37.387Z,1.10
2018-09-29T08:47:41.223Z,1.20
2018-09-29T08:52:45.674Z,1.20
2018-09-29T08:57:49.484Z,1.45
2018-09-29T09:02:53.623Z,1.27
2018-09-29T09:08:06.451Z,1.40
2018-09-29T09:13:10.273Z,1.40
2018-09-29T09:18:14.693Z,1.80
2018-09-29T09:23:18.540Z,1.30
2018-09-29T09:28:22.478Z,1.30
2018-09-29T09:33:26.416Z,1.35
2018-09-29T09:38:30.264Z,1.47
2018-09-29T09:43:34.204Z,1.40
2018-09-29T09:53:48.128Z,0.97
2018-09-29T09:58:52.204Z,1.47
2018-09-29T10:03:56.203Z,2.47
2018-09-29T10:08:59.746Z,1.27
2018-09-29T10:14:03.892Z,1.30
2018-09-29T10:19:10.020Z,1.77
2018-09-29T10:24:13.927Z,1.10
2018-09-29T10:29:17.981Z,1.50
2018-09-29T10:34:21.754Z,1.33
2018-09-29T10:39:25.376Z,1.50
2018-09-29T10:44:29.184Z,2.00
2018-09-29T10:49:33.480Z,2.53
2018-09-29T10:54:38.154Z,3.83
2018-09-29T10:59:41.915Z,3.90
2018-09-29T11:04:45.774Z,3.60
2018-09-29T11:09:49.738Z,4.47
2018-09-29T11:14:53.638Z,3.60
2018-09-29T11:19:57.520Z,3.43
2018-09-29T11:25:01.479Z,3.73
2018-09-29T11:30:06.121Z,3.00
2018-09-29T11:35:10.441Z,3.40
2018-09-29T11:40:14.160Z,2.93
2018-09-29T11:45:17.971Z,2.67
2018-09-29T11:50:22.165Z,2.17
2018-09-29T11:55:26.410Z,2.50
2018-09-29T12:13:23.047Z,2.23
2018-09-29T12:18:27.104Z,2.00
2018-09-29T12:23:31.241Z,2.20
2018-09-29T12:28:35.318Z,1.87
2018-09-29T12:33:38.975Z,2.00
2018-09-29T12:38:43.740Z,2.10
2018-09-29T12:43:47.825Z,2.07
2018-09-29T12:48:51.858Z,2.47
2018-09-29T12:53:57.015Z,2.40
2018-09-29T12:59:01.679Z,2.03
2018-09-29T13:04:05.349Z,1.87
2018-09-29T13:09:08.937Z,2.40
2018-09-29T13:14:12.465Z,1.97
2018-09-29T13:19:16.039Z,2.10
2018-09-29T13:24:19.983Z,2.20
2018-09-29T13:29:24.070Z,1.80
2018-09-29T13:34:27.829Z,2.00
2018-09-29T13:39:31.472Z,1.70
2018-09-29T13:44:35.115Z,1.60
2018-09-29T13:49:38.737Z,2.10
2018-09-29T13:54:42.508Z,2.27
2018-09-29T13:59:48.792Z,2.23
2018-09-29T14:04:52.835Z,2.17
2018-09-29T14:09:57.609Z,1.87
2018-09-29T14:15:01.214Z,2.15
2018-09-29T14:20:05.829Z,1.87
2018-09-29T14:25:10.816Z,1.90
2018-09-29T14:30:15.096Z,2.50
2018-09-29T14:35:18.955Z,2.03
2018-09-29T14:40:23.689Z,2.07
2018-09-29T14:45:27.481Z,1.60
2018-09-29T14:50:31.909Z,2.43
2018-09-29T14:55:36.303Z,1.53
2018-09-29T15:00:40.195Z,2.17
2018-09-29T15:05:44.406Z,2.07
2018-09-29T15:10:49.088Z,2.13
2018-09-29T15:15:52.721Z,1.67
2018-09-29T15:20:56.334Z,2.07
2018-09-29T15:26:00.321Z,1.60
2018-09-29T15:31:05.111Z,1.40
2018-09-29T15:36:09.048Z,1.93
2018-09-29T15:41:15.047Z,1.62
2018-09-29T15:46:19.335Z,1.87
2018-09-29T15:51:23.596Z,2.00
2018-09-29T15:56:27.666Z,1.83
2018-09-29T16:01:32.049Z,1.87
2018-09-29T16:06:35.649Z,2.37
2018-09-29T16:11:40.447Z,2.63
2018-09-29T16:16:45.126Z,2.10
2018-09-29T16:21:49.097Z,2.43
2018-09-29T16:26:53.380Z,2.13
2018-09-29T16:31:57.907Z,2.80
2018-09-29T16:37:01.651Z,2.60
2018-09-29T16:42:06.312Z,2.10
2018-09-29T16:47:09.898Z,2.27
2018-09-29T16:52:13.733Z,1.80
2018-09-29T16:57:17.705Z,2.47
2018-09-29T17:02:21.589Z,2.10
2018-09-29T17:07:25.865Z,2.40
2018-09-29T17:12:29.494Z,2.20
2018-09-29T17:17:33.204Z,2.10
2018-09-29T17:22:37.622Z,2.70
2018-09-29T17:33:11.816Z,2.10
2018-09-29T17:38:15.738Z,2.33
2018-09-29T17:43:20.918Z,2.10
2018-09-29T17:48:25.813Z,2.63
2018-09-29T17:53:29.872Z,2.40
2018-09-29T17:58:36.756Z,2.17
2018-09-29T18:03:41.646Z,2.13
2018-09-29T18:08:45.414Z,2.70
2018-09-29T18:13:49.656Z,1.80
2018-09-29T18:18:53.508Z,2.37
2018-09-29T18:23:57.320Z,2.47
2018-09-29T18:29:03.211Z,2.60
2018-09-29T18:34:07.082Z,2.30
2018-09-29T18:39:11.146Z,2.60
2018-09-29T18:44:14.754Z,2.47
2018-09-29T18:49:18.612Z,1.90
2018-09-29T18:54:22.452Z,2.13
2018-09-29T18:59:26.863Z,2.22
2018-09-29T19:04:31.028Z,1.97
2018-09-29T19:09:35.118Z,1.93
2018-09-29T19:14:39.027Z,2.10
2018-09-29T19:19:42.773Z,1.90
2018-09-29T19:24:46.751Z,2.13
2018-09-29T19:29:50.892Z,2.27
2018-09-29T19:34:54.751Z,2.07
2018-09-29T19:39:58.599Z,2.17
2018-09-29T19:45:02.340Z,2.30
2018-09-29T19:50:06.506Z,2.27
2018-09-29T19:55:10.258Z,2.13
2018-09-29T20:00:14.973Z,2.27
2018-09-29T20:05:18.534Z,2.60
2018-09-29T20:10:22.040Z,2.27
2018-09-29T20:15:26.941Z,1.97
2018-09-29T20:20:31.705Z,2.43
2018-09-29T20:25:35.738Z,2.60
2018-09-29T20:30:39.695Z,2.00
2018-09-29T20:35:43.308Z,2.73
2018-09-29T20:40:46.854Z,2.23
2018-09-29T20:45:51.372Z,2.40
2018-09-29T20:50:55.091Z,2.33
2018-09-29T20:55:59.422Z,1.80
2018-09-29T21:01:03.242Z,2.40
2018-09-29T21:06:08.162Z,2.30
2018-09-29T21:11:11.996Z,2.00
2018-09-29T21:16:15.782Z,2.30
2018-09-29T21:21:20.653Z,2.33
2018-09-29T21:26:24.330Z,2.60
2018-09-29T21:31:30.291Z,2.30
2018-09-29T21:36:33.891Z,2.77
2018-09-29T21:41:37.637Z,2.00
2018-09-29T21:46:41.151Z,2.87
2018-09-29T21:51:44.727Z,2.47
2018-09-29T21:56:48.333Z,2.03
2018-09-29T22:01:51.879Z,2.25
2018-09-29T22:06:55.397Z,2.53
2018-09-29T22:11:59.307Z,2.20
2018-09-29T22:17:03.623Z,2.20
2018-09-29T22:22:07.619Z,2.20
2018-09-29T22:27:11.743Z,2.20
2018-09-29T22:32:15.586Z,2.23
2018-09-29T22:37:19.361Z,2.27
2018-09-29T22:42:22.955Z,2.27
2018-09-29T22:47:26.639Z,2.30
2018-09-29T22:52:30.651Z,1.90
2018-09-29T22:57:34.400Z,2.60
2018-09-29T23:02:38.366Z,2.03
2018-09-29T23:07:42.437Z,1.90
2018-09-29T23:12:46.288Z,2.60
2018-09-29T23:17:50.089Z,2.30
2018-09-29T23:22:54.390Z,2.07
2018-09-29T23:27:57.943Z,2.55
2018-09-29T23:33:02.344Z,2.47
2018-09-29T23:38:08.236Z,2.20
2018-09-29T23:43:13.082Z,3.00
2018-09-29T23:48:18.134Z,2.40
2018-09-29T23:53:21.655Z,2.73
2018-09-29T23:58:25.199Z,2.90
